sensor_id;sensor_type;location;lat;lon;timestamp;P1;durP1;ratioP1;P2;durP2;ratioP2
9884;SDS011;4981;50.966;4.842;2022-07-22T00:01:00;15.80;;;4.13;;
9884;SDS011;4981;50.966;4.842;2022-07-22T00:03:30;13.73;;;3.67;;
9884;SDS011;4981;50.966;4.842;2022-07-22T00:05:57;10.20;;;3.60;;
9884;SDS011;4981;50.966;4.842;2022-07-22T00:08:25;10.60;;;3.23;;
9884;SDS011;4981;50.966;4.842;2022-07-22T00:10:52;11.07;;;3.43;;
9884;SDS011;4981;50.966;4.842;2022-07-22T00:13:20;9.60;;;3.57;;
9884;SDS011;4981;50.966;4.842;2022-07-22T00:15:47;9.33;;;3.30;;
9884;SDS011;4981;50.966;4.842;2022-07-22T00:18:15;12.33;;;3.77;;
9884;SDS011;4981;50.966;4.842;2022-07-22T00:20:44;11.17;;;3.53;;
9884;SDS011;4981;50.966;4.842;2022-07-22T00:23:11;11.77;;;3.13;;
9884;SDS011;4981;50.966;4.842;2022-07-22T00:25:39;10.50;;;3.43;;
9884;SDS011;4981;50.966;4.842;2022-07-22T00:28:06;13.93;;;3.73;;
9884;SDS011;4981;50.966;4.842;2022-07-22T00:30:34;9.57;;;3.17;;
9884;SDS011;4981;50.966;4.842;2022-07-22T00:33:01;9.03;;;3.50;;
9884;SDS011;4981;50.966;4.842;2022-07-22T00:35:29;12.73;;;3.27;;
9884;SDS011;4981;50.966;4.842;2022-07-22T00:37:59;10.53;;;3.57;;
9884;SDS011;4981;50.966;4.842;2022-07-22T00:40:26;13.10;;;3.17;;
9884;SDS011;4981;50.966;4.842;2022-07-22T00:42:54;11.67;;;3.53;;
9884;SDS011;4981;50.966;4.842;2022-07-22T00:45:21;11.80;;;3.60;;
9884;SDS011;4981;50.966;4.842;2022-07-22T00:47:48;9.43;;;3.10;;
9884;SDS011;4981;50.966;4.842;2022-07-22T00:50:15;13.00;;;3.10;;
9884;SDS011;4981;50.966;4.842;2022-07-22T00:52:45;8.70;;;3.13;;
9884;SDS011;4981;50.966;4.842;2022-07-22T00:55:14;12.60;;;3.57;;
9884;SDS011;4981;50.966;4.842;2022-07-22T00:57:42;14.10;;;3.57;;
9884;SDS011;4981;50.966;4.842;2022-07-22T01:00:11;10.77;;;2.97;;
9884;SDS011;4981;50.966;4.842;2022-07-22T01:02:41;9.63;;;3.17;;
9884;SDS011;4981;50.966;4.842;2022-07-22T01:05:09;8.83;;;3.33;;
9884;SDS011;4981;50.966;4.842;2022-07-22T01:07:36;11.00;;;2.83;;
9884;SDS011;4981;50.966;4.842;2022-07-22T01:10:05;6.97;;;3.20;;
9884;SDS011;4981;50.966;4.842;2022-07-22T01:12:36;12.60;;;3.07;;
9884;SDS011;4981;50.966;4.842;2022-07-22T01:15:04;12.97;;;3.17;;
9884;SDS011;4981;50.966;4.842;2022-07-22T01:17:32;10.90;;;3.33;;
9884;SDS011;4981;50.966;4.842;2022-07-22T01:20:02;11.00;;;3.10;;
9884;SDS011;4981;50.966;4.842;2022-07-22T01:22:31;11.57;;;3.73;;
9884;SDS011;4981;50.966;4.842;2022-07-22T01:24:58;9.00;;;3.60;;
9884;SDS011;4981;50.966;4.842;2022-07-22T01:27:26;8.53;;;3.60;;
9884;SDS011;4981;50.966;4.842;2022-07-22T01:29:54;9.43;;;3.30;;
9884;SDS011;4981;50.966;4.842;2022-07-22T01:32:22;10.50;;;3.53;;
9884;SDS011;4981;50.966;4.842;2022-07-22T01:34:51;8.80;;;3.57;;
9884;SDS011;4981;50.966;4.842;2022-07-22T01:37:20;10.23;;;3.63;;
9884;SDS011;4981;50.966;4.842;2022-07-22T01:39:48;9.27;;;3.60;;
9884;SDS011;4981;50.966;4.842;2022-07-22T01:42:16;7.47;;;3.60;;
9884;SDS011;4981;50.966;4.842;2022-07-22T01:44:44;11.50;;;4.07;;
9884;SDS011;4981;50.966;4.842;2022-07-22T01:47:11;8.53;;;3.33;;
9884;SDS011;4981;50.966;4.842;2022-07-22T01:49:39;10.53;;;3.70;;
9884;SDS011;4981;50.966;4.842;2022-07-22T01:52:06;8.93;;;3.50;;
9884;SDS011;4981;50.966;4.842;2022-07-22T01:54:35;12.43;;;4.50;;
9884;SDS011;4981;50.966;4.842;2022-07-22T01:57:02;11.27;;;4.20;;
9884;SDS011;4981;50.966;4.842;2022-07-22T01:59:30;9.47;;;3.90;;
9884;SDS011;4981;50.966;4.842;2022-07-22T02:01:57;8.87;;;4.03;;
9884;SDS011;4981;50.966;4.842;2022-07-22T02:04:25;15.47;;;3.80;;
9884;SDS011;4981;50.966;4.842;2022-07-22T02:06:52;10.37;;;4.10;;
9884;SDS011;4981;50.966;4.842;2022-07-22T02:09:20;10.70;;;4.37;;
9884;SDS011;4981;50.966;4.842;2022-07-22T02:11:49;11.90;;;4.43;;
9884;SDS011;4981;50.966;4.842;2022-07-22T02:14:16;12.07;;;4.17;;
9884;SDS011;4981;50.966;4.842;2022-07-22T02:16:43;10.23;;;4.47;;
9884;SDS011;4981;50.966;4.842;2022-07-22T02:19:11;10.40;;;4.93;;
9884;SDS011;4981;50.966;4.842;2022-07-22T02:21:39;9.70;;;4.50;;
9884;SDS011;4981;50.966;4.842;2022-07-22T02:24:06;11.10;;;4.73;;
9884;SDS011;4981;50.966;4.842;2022-07-22T02:29:21;10.20;;;4.63;;
9884;SDS011;4981;50.966;4.842;2022-07-22T02:31:48;11.37;;;5.27;;
9884;SDS011;4981;50.966;4.842;2022-07-22T02:34:16;9.50;;;4.30;;
9884;SDS011;4981;50.966;4.842;2022-07-22T02:36:43;8.53;;;4.40;;
9884;SDS011;4981;50.966;4.842;2022-07-22T02:39:11;9.83;;;4.23;;
9884;SDS011;4981;50.966;4.842;2022-07-22T02:41:38;13.67;;;5.90;;
9884;SDS011;4981;50.966;4.842;2022-07-22T02:44:07;10.47;;;4.23;;
9884;SDS011;4981;50.966;4.842;2022-07-22T02:46:34;13.90;;;4.77;;
9884;SDS011;4981;50.966;4.842;2022-07-22T02:49:02;12.27;;;4.97;;
9884;SDS011;4981;50.966;4.842;2022-07-22T02:51:30;15.20;;;5.67;;
9884;SDS011;4981;50.966;4.842;2022-07-22T02:53:57;14.57;;;4.93;;
9884;SDS011;4981;50.966;4.842;2022-07-22T02:56:27;10.93;;;4.93;;
9884;SDS011;4981;50.966;4.842;2022-07-22T02:58:54;9.63;;;4.40;;
9884;SDS011;4981;50.966;4.842;2022-07-22T03:01:24;13.70;;;4.73;;
9884;SDS011;4981;50.966;4.842;2022-07-22T03:03:51;10.77;;;5.23;;
9884;SDS011;4981;50.966;4.842;2022-07-22T03:06:19;7.73;;;4.97;;
9884;SDS011;4981;50.966;4.842;2022-07-22T03:08:47;11.33;;;5.07;;
9884;SDS011;4981;50.966;4.842;2022-07-22T03:11:14;12.80;;;4.90;;
9884;SDS011;4981;50.966;4.842;2022-07-22T03:13:42;9.93;;;4.60;;
9884;SDS011;4981;50.966;4.842;2022-07-22T03:16:09;10.27;;;5.27;;
9884;SDS011;4981;50.966;4.842;2022-07-22T03:18:38;15.70;;;4.97;;
9884;SDS011;4981;50.966;4.842;2022-07-22T03:21:06;8.33;;;5.10;;
9884;SDS011;4981;50.966;4.842;2022-07-22T03:23:33;14.70;;;5.30;;
9884;SDS011;4981;50.966;4.842;2022-07-22T03:26:01;12.73;;;5.10;;
9884;SDS011;4981;50.966;4.842;2022-07-22T03:28:28;11.97;;;4.30;;
9884;SDS011;4981;50.966;4.842;2022-07-22T03:30:55;13.33;;;5.40;;
9884;SDS011;4981;50.966;4.842;2022-07-22T03:33:23;13.27;;;6.13;;
9884;SDS011;4981;50.966;4.842;2022-07-22T03:35:52;9.80;;;4.63;;
9884;SDS011;4981;50.966;4.842;2022-07-22T03:38:19;11.37;;;5.17;;
9884;SDS011;4981;50.966;4.842;2022-07-22T03:40:47;11.10;;;5.83;;
9884;SDS011;4981;50.966;4.842;2022-07-22T03:43:15;15.43;;;6.23;;
9884;SDS011;4981;50.966;4.842;2022-07-22T03:45:42;13.83;;;6.40;;
9884;SDS011;4981;50.966;4.842;2022-07-22T03:48:10;14.17;;;6.07;;
9884;SDS011;4981;50.966;4.842;2022-07-22T03:50:37;11.20;;;5.90;;
9884;SDS011;4981;50.966;4.842;2022-07-22T03:53:06;14.90;;;6.03;;
9884;SDS011;4981;50.966;4.842;2022-07-22T03:55:34;15.93;;;6.73;;
9884;SDS011;4981;50.966;4.842;2022-07-22T03:58:02;13.40;;;6.20;;
9884;SDS011;4981;50.966;4.842;2022-07-22T04:00:32;13.60;;;5.87;;
9884;SDS011;4981;50.966;4.842;2022-07-22T04:02:59;12.50;;;5.97;;
9884;SDS011;4981;50.966;4.842;2022-07-22T04:05:27;9.97;;;5.47;;
9884;SDS011;4981;50.966;4.842;2022-07-22T04:07:54;9.63;;;5.50;;
9884;SDS011;4981;50.966;4.842;2022-07-22T04:10:24;11.13;;;5.77;;
9884;SDS011;4981;50.966;4.842;2022-07-22T04:12:51;14.73;;;6.17;;
9884;SDS011;4981;50.966;4.842;2022-07-22T04:15:19;14.27;;;6.23;;
9884;SDS011;4981;50.966;4.842;2022-07-22T04:17:46;10.67;;;5.97;;
9884;SDS011;4981;50.966;4.842;2022-07-22T04:20:14;11.13;;;6.40;;
9884;SDS011;4981;50.966;4.842;2022-07-22T04:22:42;13.40;;;6.27;;
9884;SDS011;4981;50.966;4.842;2022-07-22T04:25:10;10.33;;;6.10;;
9884;SDS011;4981;50.966;4.842;2022-07-22T04:27:39;16.10;;;6.60;;
9884;SDS011;4981;50.966;4.842;2022-07-22T04:30:07;14.27;;;6.60;;
9884;SDS011;4981;50.966;4.842;2022-07-22T04:32:35;15.13;;;7.47;;
9884;SDS011;4981;50.966;4.842;2022-07-22T04:35:02;14.63;;;6.27;;
9884;SDS011;4981;50.966;4.842;2022-07-22T04:37:31;12.30;;;6.10;;
9884;SDS011;4981;50.966;4.842;2022-07-22T04:39:59;18.93;;;7.33;;
9884;SDS011;4981;50.966;4.842;2022-07-22T04:42:27;13.10;;;7.23;;
9884;SDS011;4981;50.966;4.842;2022-07-22T04:44:56;16.80;;;8.03;;
9884;SDS011;4981;50.966;4.842;2022-07-22T04:47:23;16.73;;;8.27;;
9884;SDS011;4981;50.966;4.842;2022-07-22T04:49:52;21.03;;;9.03;;
9884;SDS011;4981;50.966;4.842;2022-07-22T04:52:19;13.27;;;8.07;;
9884;SDS011;4981;50.966;4.842;2022-07-22T04:54:47;14.87;;;9.03;;
9884;SDS011;4981;50.966;4.842;2022-07-22T04:57:14;16.67;;;9.00;;
9884;SDS011;4981;50.966;4.842;2022-07-22T04:59:42;19.87;;;8.93;;
9884;SDS011;4981;50.966;4.842;2022-07-22T05:02:11;17.53;;;9.03;;
9884;SDS011;4981;50.966;4.842;2022-07-22T05:04:38;20.83;;;9.27;;
9884;SDS011;4981;50.966;4.842;2022-07-22T05:07:06;12.07;;;8.90;;
9884;SDS011;4981;50.966;4.842;2022-07-22T05:09:33;19.13;;;9.30;;
9884;SDS011;4981;50.966;4.842;2022-07-22T05:12:01;16.43;;;9.27;;
9884;SDS011;4981;50.966;4.842;2022-07-22T05:14:29;16.33;;;8.83;;
9884;SDS011;4981;50.966;4.842;2022-07-22T05:16:57;19.60;;;9.50;;
9884;SDS011;4981;50.966;4.842;2022-07-22T05:19:26;19.00;;;9.77;;
9884;SDS011;4981;50.966;4.842;2022-07-22T05:21:54;16.93;;;9.13;;
9884;SDS011;4981;50.966;4.842;2022-07-22T05:24:23;17.77;;;9.33;;
9884;SDS011;4981;50.966;4.842;2022-07-22T05:26:50;21.63;;;9.60;;
9884;SDS011;4981;50.966;4.842;2022-07-22T05:29:20;21.23;;;10.20;;
9884;SDS011;4981;50.966;4.842;2022-07-22T05:31:50;17.13;;;9.70;;
9884;SDS011;4981;50.966;4.842;2022-07-22T05:34:17;15.97;;;9.77;;
9884;SDS011;4981;50.966;4.842;2022-07-22T05:36:46;17.70;;;10.33;;
9884;SDS011;4981;50.966;4.842;2022-07-22T05:39:14;18.47;;;10.57;;
9884;SDS011;4981;50.966;4.842;2022-07-22T05:41:41;21.07;;;10.93;;
9884;SDS011;4981;50.966;4.842;2022-07-22T05:44:09;20.27;;;10.20;;
9884;SDS011;4981;50.966;4.842;2022-07-22T05:46:36;20.13;;;10.40;;
9884;SDS011;4981;50.966;4.842;2022-07-22T05:49:03;20.43;;;9.73;;
9884;SDS011;4981;50.966;4.842;2022-07-22T05:51:31;19.17;;;9.80;;
9884;SDS011;4981;50.966;4.842;2022-07-22T05:54:00;18.03;;;8.67;;
9884;SDS011;4981;50.966;4.842;2022-07-22T05:56:29;16.40;;;9.17;;
9884;SDS011;4981;50.966;4.842;2022-07-22T05:58:56;17.87;;;9.37;;
9884;SDS011;4981;50.966;4.842;2022-07-22T06:01:24;15.67;;;9.33;;
9884;SDS011;4981;50.966;4.842;2022-07-22T06:03:52;14.10;;;8.47;;
9884;SDS011;4981;50.966;4.842;2022-07-22T06:06:19;16.77;;;8.50;;
9884;SDS011;4981;50.966;4.842;2022-07-22T06:08:47;16.47;;;8.53;;
9884;SDS011;4981;50.966;4.842;2022-07-22T06:11:16;15.63;;;8.53;;
9884;SDS011;4981;50.966;4.842;2022-07-22T06:13:43;17.93;;;7.30;;
9884;SDS011;4981;50.966;4.842;2022-07-22T06:16:11;17.50;;;7.47;;
9884;SDS011;4981;50.966;4.842;2022-07-22T06:18:38;10.67;;;6.70;;
9884;SDS011;4981;50.966;4.842;2022-07-22T06:21:05;12.17;;;6.93;;
9884;SDS011;4981;50.966;4.842;2022-07-22T06:23:33;12.20;;;6.90;;
9884;SDS011;4981;50.966;4.842;2022-07-22T06:26:01;12.97;;;6.40;;
9884;SDS011;4981;50.966;4.842;2022-07-22T06:28:30;9.10;;;6.13;;
9884;SDS011;4981;50.966;4.842;2022-07-22T06:30:58;9.40;;;4.90;;
9884;SDS011;4981;50.966;4.842;2022-07-22T06:33:25;10.53;;;5.80;;
9884;SDS011;4981;50.966;4.842;2022-07-22T06:35:53;15.90;;;5.70;;
9884;SDS011;4981;50.966;4.842;2022-07-22T06:38:20;7.87;;;5.27;;
9884;SDS011;4981;50.966;4.842;2022-07-22T06:40:47;11.37;;;5.83;;
9884;SDS011;4981;50.966;4.842;2022-07-22T06:43:15;7.87;;;4.67;;
9884;SDS011;4981;50.966;4.842;2022-07-22T06:45:46;12.30;;;5.33;;
9884;SDS011;4981;50.966;4.842;2022-07-22T06:48:14;8.83;;;4.63;;
9884;SDS011;4981;50.966;4.842;2022-07-22T06:50:42;10.10;;;4.70;;
9884;SDS011;4981;50.966;4.842;2022-07-22T06:53:09;10.57;;;4.40;;
9884;SDS011;4981;50.966;4.842;2022-07-22T06:55:37;9.50;;;4.50;;
9884;SDS011;4981;50.966;4.842;2022-07-22T06:58:04;8.83;;;4.00;;
9884;SDS011;4981;50.966;4.842;2022-07-22T07:00:32;6.93;;;3.67;;
9884;SDS011;4981;50.966;4.842;2022-07-22T07:03:01;12.20;;;3.63;;
9884;SDS011;4981;50.966;4.842;2022-07-22T07:05:29;11.37;;;3.60;;
9884;SDS011;4981;50.966;4.842;2022-07-22T07:07:57;6.40;;;3.30;;
9884;SDS011;4981;50.966;4.842;2022-07-22T07:10:24;6.07;;;2.50;;
9884;SDS011;4981;50.966;4.842;2022-07-22T07:12:54;7.40;;;2.57;;
9884;SDS011;4981;50.966;4.842;2022-07-22T07:15:23;7.83;;;2.90;;
9884;SDS011;4981;50.966;4.842;2022-07-22T07:17:53;6.53;;;2.50;;
9884;SDS011;4981;50.966;4.842;2022-07-22T07:20:24;7.93;;;2.73;;
9884;SDS011;4981;50.966;4.842;2022-07-22T07:22:51;4.93;;;2.80;;
9884;SDS011;4981;50.966;4.842;2022-07-22T07:25:20;5.63;;;2.47;;
9884;SDS011;4981;50.966;4.842;2022-07-22T07:27:48;5.03;;;2.40;;
9884;SDS011;4981;50.966;4.842;2022-07-22T07:30:15;5.27;;;2.10;;
9884;SDS011;4981;50.966;4.842;2022-07-22T07:32:43;7.13;;;3.07;;
9884;SDS011;4981;50.966;4.842;2022-07-22T07:35:10;6.70;;;2.87;;
9884;SDS011;4981;50.966;4.842;2022-07-22T07:37:39;5.73;;;2.60;;
9884;SDS011;4981;50.966;4.842;2022-07-22T07:40:07;7.30;;;2.73;;
9884;SDS011;4981;50.966;4.842;2022-07-22T07:42:35;6.47;;;2.43;;
9884;SDS011;4981;50.966;4.842;2022-07-22T07:45:03;4.53;;;2.73;;
9884;SDS011;4981;50.966;4.842;2022-07-22T07:47:31;9.73;;;2.60;;
9884;SDS011;4981;50.966;4.842;2022-07-22T07:49:58;5.87;;;2.40;;
9884;SDS011;4981;50.966;4.842;2022-07-22T07:52:27;6.57;;;3.03;;
9884;SDS011;4981;50.966;4.842;2022-07-22T07:54:57;4.97;;;2.63;;
9884;SDS011;4981;50.966;4.842;2022-07-22T07:57:25;4.57;;;2.30;;
9884;SDS011;4981;50.966;4.842;2022-07-22T07:59:52;5.47;;;2.30;;
9884;SDS011;4981;50.966;4.842;2022-07-22T08:02:19;4.80;;;2.47;;
9884;SDS011;4981;50.966;4.842;2022-07-22T08:04:47;5.27;;;2.60;;
9884;SDS011;4981;50.966;4.842;2022-07-22T08:07:14;4.30;;;2.30;;
9884;SDS011;4981;50.966;4.842;2022-07-22T08:09:42;8.17;;;2.53;;
9884;SDS011;4981;50.966;4.842;2022-07-22T08:12:11;5.40;;;2.77;;
9884;SDS011;4981;50.966;4.842;2022-07-22T08:14:38;5.67;;;2.73;;
9884;SDS011;4981;50.966;4.842;2022-07-22T08:17:05;5.23;;;2.50;;
9884;SDS011;4981;50.966;4.842;2022-07-22T08:19:33;5.80;;;2.70;;
9884;SDS011;4981;50.966;4.842;2022-07-22T08:22:00;5.10;;;2.53;;
9884;SDS011;4981;50.966;4.842;2022-07-22T08:24:28;7.03;;;2.67;;
9884;SDS011;4981;50.966;4.842;2022-07-22T08:26:56;6.90;;;2.57;;
9884;SDS011;4981;50.966;4.842;2022-07-22T08:29:25;6.27;;;2.53;;
9884;SDS011;4981;50.966;4.842;2022-07-22T08:31:53;5.77;;;2.43;;
9884;SDS011;4981;50.966;4.842;2022-07-22T08:34:20;5.07;;;2.67;;
9884;SDS011;4981;50.966;4.842;2022-07-22T08:36:47;6.30;;;2.70;;
9884;SDS011;4981;50.966;4.842;2022-07-22T08:39:15;4.47;;;2.40;;
9884;SDS011;4981;50.966;4.842;2022-07-22T08:41:42;5.20;;;2.33;;
9884;SDS011;4981;50.966;4.842;2022-07-22T08:44:10;5.10;;;2.50;;
9884;SDS011;4981;50.966;4.842;2022-07-22T08:46:40;5.80;;;2.67;;
9884;SDS011;4981;50.966;4.842;2022-07-22T08:49:12;7.23;;;3.00;;
9884;SDS011;4981;50.966;4.842;2022-07-22T08:51:40;8.37;;;2.40;;
9884;SDS011;4981;50.966;4.842;2022-07-22T08:54:08;4.77;;;2.70;;
9884;SDS011;4981;50.966;4.842;2022-07-22T08:56:35;5.97;;;2.77;;
9884;SDS011;4981;50.966;4.842;2022-07-22T08:59:04;3.90;;;2.13;;
9884;SDS011;4981;50.966;4.842;2022-07-22T09:01:32;4.80;;;2.73;;
9884;SDS011;4981;50.966;4.842;2022-07-22T09:04:01;9.43;;;3.47;;
9884;SDS011;4981;50.966;4.842;2022-07-22T09:06:29;5.37;;;3.10;;
9884;SDS011;4981;50.966;4.842;2022-07-22T09:08:59;5.57;;;2.60;;
9884;SDS011;4981;50.966;4.842;2022-07-22T09:11:28;5.10;;;3.17;;
9884;SDS011;4981;50.966;4.842;2022-07-22T09:13:57;7.20;;;2.67;;
9884;SDS011;4981;50.966;4.842;2022-07-22T09:16:39;4.13;;;2.50;;
9884;SDS011;4981;50.966;4.842;2022-07-22T09:19:13;5.17;;;2.40;;
9884;SDS011;4981;50.966;4.842;2022-07-22T09:21:41;5.13;;;2.60;;
9884;SDS011;4981;50.966;4.842;2022-07-22T09:24:25;6.43;;;2.30;;
9884;SDS011;4981;50.966;4.842;2022-07-22T09:26:53;5.40;;;2.40;;
9884;SDS011;4981;50.966;4.842;2022-07-22T09:29:21;5.47;;;2.67;;
9884;SDS011;4981;50.966;4.842;2022-07-22T09:31:49;8.87;;;2.93;;
9884;SDS011;4981;50.966;4.842;2022-07-22T09:34:25;4.57;;;2.40;;
9884;SDS011;4981;50.966;4.842;2022-07-22T09:36:54;4.13;;;2.20;;
9884;SDS011;4981;50.966;4.842;2022-07-22T09:39:25;5.23;;;2.70;;
9884;SDS011;4981;50.966;4.842;2022-07-22T09:41:56;2.83;;;2.30;;
9884;SDS011;4981;50.966;4.842;2022-07-22T09:44:27;6.40;;;2.43;;
9884;SDS011;4981;50.966;4.842;2022-07-22T09:46:55;5.30;;;2.37;;
9884;SDS011;4981;50.966;4.842;2022-07-22T09:49:34;4.90;;;2.80;;
9884;SDS011;4981;50.966;4.842;2022-07-22T09:52:03;4.70;;;2.50;;
9884;SDS011;4981;50.966;4.842;2022-07-22T09:54:32;6.80;;;2.63;;
9884;SDS011;4981;50.966;4.842;2022-07-22T09:56:59;4.00;;;2.30;;
9884;SDS011;4981;50.966;4.842;2022-07-22T09:59:27;4.17;;;2.50;;
9884;SDS011;4981;50.966;4.842;2022-07-22T10:01:55;4.23;;;2.47;;
9884;SDS011;4981;50.966;4.842;2022-07-22T10:04:25;3.57;;;2.17;;
9884;SDS011;4981;50.966;4.842;2022-07-22T10:06:59;4.83;;;2.47;;
9884;SDS011;4981;50.966;4.842;2022-07-22T10:09:28;6.00;;;2.83;;
9884;SDS011;4981;50.966;4.842;2022-07-22T10:11:56;4.10;;;3.13;;
9884;SDS011;4981;50.966;4.842;2022-07-22T10:14:24;6.63;;;2.97;;
9884;SDS011;4981;50.966;4.842;2022-07-22T10:16:53;5.20;;;2.97;;
9884;SDS011;4981;50.966;4.842;2022-07-22T10:19:21;5.57;;;2.70;;
9884;SDS011;4981;50.966;4.842;2022-07-22T10:21:49;2.70;;;2.27;;
9884;SDS011;4981;50.966;4.842;2022-07-22T10:24:18;9.00;;;2.90;;
9884;SDS011;4981;50.966;4.842;2022-07-22T10:26:50;4.27;;;2.57;;
9884;SDS011;4981;50.966;4.842;2022-07-22T10:29:25;4.83;;;2.57;;
9884;SDS011;4981;50.966;4.842;2022-07-22T10:37:48;5.07;;;2.63;;
9884;SDS011;4981;50.966;4.842;2022-07-22T10:40:18;3.30;;;2.80;;
9884;SDS011;4981;50.966;4.842;2022-07-22T10:43:03;5.10;;;2.93;;
9884;SDS011;4981;50.966;4.842;2022-07-22T10:45:32;3.10;;;2.80;;
9884;SDS011;4981;50.966;4.842;2022-07-22T10:48:01;3.77;;;2.43;;
9884;SDS011;4981;50.966;4.842;2022-07-22T10:50:40;5.07;;;2.83;;
9884;SDS011;4981;50.966;4.842;2022-07-22T10:53:10;3.53;;;2.53;;
9884;SDS011;4981;50.966;4.842;2022-07-22T10:55:57;4.53;;;2.60;;
9884;SDS011;4981;50.966;4.842;2022-07-22T10:58:40;5.10;;;2.90;;
9884;SDS011;4981;50.966;4.842;2022-07-22T11:01:12;4.43;;;2.80;;
9884;SDS011;4981;50.966;4.842;2022-07-22T11:03:42;4.70;;;2.60;;
9884;SDS011;4981;50.966;4.842;2022-07-22T11:06:19;4.93;;;2.90;;
9884;SDS011;4981;50.966;4.842;2022-07-22T11:08:55;5.97;;;2.80;;
9884;SDS011;4981;50.966;4.842;2022-07-22T11:11:36;4.30;;;2.70;;
9884;SDS011;4981;50.966;4.842;2022-07-22T11:14:13;7.87;;;3.20;;
9884;SDS011;4981;50.966;4.842;2022-07-22T11:16:45;4.67;;;2.83;;
9884;SDS011;4981;50.966;4.842;2022-07-22T11:19:23;3.23;;;2.40;;
9884;SDS011;4981;50.966;4.842;2022-07-22T11:21:52;3.93;;;2.50;;
9884;SDS011;4981;50.966;4.842;2022-07-22T11:24:21;6.20;;;2.70;;
9884;SDS011;4981;50.966;4.842;2022-07-22T11:26:53;8.37;;;2.80;;
9884;SDS011;4981;50.966;4.842;2022-07-22T11:29:26;4.68;;;2.70;;
9884;SDS011;4981;50.966;4.842;2022-07-22T11:31:55;4.22;;;2.78;;
9884;SDS011;4981;50.966;4.842;2022-07-22T11:34:24;5.43;;;2.63;;
9884;SDS011;4981;50.966;4.842;2022-07-22T11:36:54;5.82;;;2.22;;
9884;SDS011;4981;50.966;4.842;2022-07-22T11:39:23;3.03;;;2.20;;
9884;SDS011;4981;50.966;4.842;2022-07-22T11:41:54;2.03;;;1.83;;
9884;SDS011;4981;50.966;4.842;2022-07-22T11:44:23;5.25;;;2.63;;
9884;SDS011;4981;50.966;4.842;2022-07-22T11:46:52;6.22;;;2.80;;
9884;SDS011;4981;50.966;4.842;2022-07-22T11:49:23;4.97;;;2.47;;
9884;SDS011;4981;50.966;4.842;2022-07-22T11:51:52;3.58;;;2.50;;
9884;SDS011;4981;50.966;4.842;2022-07-22T11:54:20;5.75;;;2.70;;
9884;SDS011;4981;50.966;4.842;2022-07-22T11:56:47;3.97;;;2.20;;
9884;SDS011;4981;50.966;4.842;2022-07-22T11:59:17;4.40;;;2.22;;
9884;SDS011;4981;50.966;4.842;2022-07-22T12:01:45;4.70;;;2.17;;
9884;SDS011;4981;50.966;4.842;2022-07-22T12:04:14;5.03;;;2.25;;
9884;SDS011;4981;50.966;4.842;2022-07-22T12:06:43;5.72;;;2.08;;
9884;SDS011;4981;50.966;4.842;2022-07-22T12:09:13;4.22;;;2.30;;
9884;SDS011;4981;50.966;4.842;2022-07-22T12:11:43;3.57;;;2.37;;
9884;SDS011;4981;50.966;4.842;2022-07-22T12:14:12;5.15;;;2.33;;
9884;SDS011;4981;50.966;4.842;2022-07-22T12:16:53;5.32;;;2.05;;
9884;SDS011;4981;50.966;4.842;2022-07-22T12:19:22;5.85;;;2.55;;
9884;SDS011;4981;50.966;4.842;2022-07-22T12:21:51;9.93;;;2.53;;
9884;SDS011;4981;50.966;4.842;2022-07-22T12:24:25;5.05;;;2.45;;
9884;SDS011;4981;50.966;4.842;2022-07-22T12:26:55;4.88;;;2.30;;
9884;SDS011;4981;50.966;4.842;2022-07-22T12:29:24;3.80;;;2.40;;
9884;SDS011;4981;50.966;4.842;2022-07-22T12:31:54;5.60;;;2.30;;
9884;SDS011;4981;50.966;4.842;2022-07-22T12:34:32;4.88;;;2.40;;
9884;SDS011;4981;50.966;4.842;2022-07-22T12:37:11;4.03;;;2.10;;
9884;SDS011;4981;50.966;4.842;2022-07-22T12:39:51;5.00;;;2.35;;
9884;SDS011;4981;50.966;4.842;2022-07-22T12:42:20;5.65;;;2.58;;
9884;SDS011;4981;50.966;4.842;2022-07-22T12:44:52;4.28;;;2.40;;
9884;SDS011;4981;50.966;4.842;2022-07-22T12:47:42;5.75;;;2.38;;
9884;SDS011;4981;50.966;4.842;2022-07-22T12:50:18;7.13;;;2.40;;
9884;SDS011;4981;50.966;4.842;2022-07-22T12:52:50;4.13;;;2.38;;
9884;SDS011;4981;50.966;4.842;2022-07-22T12:55:18;3.92;;;2.35;;
9884;SDS011;4981;50.966;4.842;2022-07-22T12:57:47;8.63;;;3.05;;
9884;SDS011;4981;50.966;4.842;2022-07-22T13:00:18;3.20;;;2.22;;
9884;SDS011;4981;50.966;4.842;2022-07-22T13:02:48;5.75;;;2.67;;
9884;SDS011;4981;50.966;4.842;2022-07-22T13:05:16;5.15;;;2.97;;
9884;SDS011;4981;50.966;4.842;2022-07-22T13:07:44;6.63;;;2.90;;
9884;SDS011;4981;50.966;4.842;2022-07-22T13:10:12;5.00;;;2.47;;
9884;SDS011;4981;50.966;4.842;2022-07-22T13:12:41;3.67;;;2.25;;
9884;SDS011;4981;50.966;4.842;2022-07-22T13:15:09;5.90;;;2.53;;
9884;SDS011;4981;50.966;4.842;2022-07-22T13:17:36;3.63;;;2.60;;
9884;SDS011;4981;50.966;4.842;2022-07-22T13:20:09;3.75;;;2.20;;
9884;SDS011;4981;50.966;4.842;2022-07-22T13:22:39;3.63;;;2.60;;
9884;SDS011;4981;50.966;4.842;2022-07-22T13:25:07;4.32;;;2.50;;
9884;SDS011;4981;50.966;4.842;2022-07-22T13:27:35;3.40;;;2.45;;
9884;SDS011;4981;50.966;4.842;2022-07-22T13:30:03;7.68;;;2.65;;
9884;SDS011;4981;50.966;4.842;2022-07-22T13:32:32;7.20;;;2.88;;
9884;SDS011;4981;50.966;4.842;2022-07-22T13:34:59;8.27;;;3.08;;
9884;SDS011;4981;50.966;4.842;2022-07-22T13:37:29;4.55;;;3.03;;
9884;SDS011;4981;50.966;4.842;2022-07-22T13:39:57;6.75;;;3.20;;
9884;SDS011;4981;50.966;4.842;2022-07-22T13:42:26;5.75;;;2.95;;
9884;SDS011;4981;50.966;4.842;2022-07-22T13:44:53;7.60;;;3.10;;
9884;SDS011;4981;50.966;4.842;2022-07-22T13:47:21;5.57;;;2.90;;
9884;SDS011;4981;50.966;4.842;2022-07-22T13:49:51;3.78;;;2.30;;
9884;SDS011;4981;50.966;4.842;2022-07-22T13:52:19;4.93;;;3.15;;
9884;SDS011;4981;50.966;4.842;2022-07-22T13:54:49;5.50;;;2.85;;
9884;SDS011;4981;50.966;4.842;2022-07-22T13:57:17;7.88;;;3.08;;
9884;SDS011;4981;50.966;4.842;2022-07-22T13:59:44;5.47;;;3.10;;
9884;SDS011;4981;50.966;4.842;2022-07-22T14:02:12;4.85;;;2.40;;
9884;SDS011;4981;50.966;4.842;2022-07-22T14:04:39;5.00;;;2.63;;
9884;SDS011;4981;50.966;4.842;2022-07-22T14:07:07;4.07;;;2.50;;
9884;SDS011;4981;50.966;4.842;2022-07-22T14:09:34;2.55;;;1.85;;
9884;SDS011;4981;50.966;4.842;2022-07-22T14:12:04;1.90;;;1.60;;
9884;SDS011;4981;50.966;4.842;2022-07-22T14:14:32;5.53;;;2.50;;
9884;SDS011;4981;50.966;4.842;2022-07-22T14:16:59;3.05;;;2.00;;
9884;SDS011;4981;50.966;4.842;2022-07-22T14:19:27;4.93;;;2.50;;
9884;SDS011;4981;50.966;4.842;2022-07-22T14:21:54;6.95;;;2.47;;
9884;SDS011;4981;50.966;4.842;2022-07-22T14:24:22;4.82;;;2.45;;
9884;SDS011;4981;50.966;4.842;2022-07-22T14:26:51;5.38;;;2.55;;
9884;SDS011;4981;50.966;4.842;2022-07-22T14:29:20;3.55;;;2.08;;
9884;SDS011;4981;50.966;4.842;2022-07-22T14:31:50;4.28;;;2.28;;
9884;SDS011;4981;50.966;4.842;2022-07-22T14:34:17;3.72;;;2.00;;
9884;SDS011;4981;50.966;4.842;2022-07-22T14:36:45;3.72;;;2.58;;
9884;SDS011;4981;50.966;4.842;2022-07-22T14:39:13;4.90;;;2.33;;
9884;SDS011;4981;50.966;4.842;2022-07-22T14:41:40;4.05;;;2.75;;
9884;SDS011;4981;50.966;4.842;2022-07-22T14:44:10;3.42;;;2.63;;
9884;SDS011;4981;50.966;4.842;2022-07-22T14:46:40;6.93;;;2.88;;
9884;SDS011;4981;50.966;4.842;2022-07-22T14:49:11;4.80;;;2.75;;
9884;SDS011;4981;50.966;4.842;2022-07-22T14:51:40;4.78;;;2.40;;
9884;SDS011;4981;50.966;4.842;2022-07-22T14:54:08;4.15;;;2.05;;
9884;SDS011;4981;50.966;4.842;2022-07-22T14:56:36;5.95;;;2.85;;
9884;SDS011;4981;50.966;4.842;2022-07-22T14:59:04;6.50;;;3.00;;
9884;SDS011;4981;50.966;4.842;2022-07-22T15:01:31;4.47;;;2.83;;
9884;SDS011;4981;50.966;4.842;2022-07-22T15:04:01;7.95;;;3.00;;
9884;SDS011;4981;50.966;4.842;2022-07-22T15:06:29;6.40;;;2.50;;
9884;SDS011;4981;50.966;4.842;2022-07-22T15:08:57;4.82;;;2.80;;
9884;SDS011;4981;50.966;4.842;2022-07-22T15:11:24;4.05;;;2.40;;
9884;SDS011;4981;50.966;4.842;2022-07-22T15:13:52;4.53;;;2.45;;
9884;SDS011;4981;50.966;4.842;2022-07-22T15:16:19;4.75;;;2.22;;
9884;SDS011;4981;50.966;4.842;2022-07-22T15:18:46;2.83;;;1.70;;
9884;SDS011;4981;50.966;4.842;2022-07-22T15:21:16;5.75;;;2.67;;
9884;SDS011;4981;50.966;4.842;2022-07-22T15:23:43;4.90;;;2.50;;
9884;SDS011;4981;50.966;4.842;2022-07-22T15:26:12;3.72;;;2.40;;
9884;SDS011;4981;50.966;4.842;2022-07-22T15:28:39;3.50;;;2.20;;